Time;durP1;ratioP1;P1;durP2;ratioP2;P2;SDS_P1;SDS_P2;PMS_P1;PMS_P2;Temp;Humidity;BMP_temperature;BMP_pressure;BME280_temperature;BME280_humidity;BME280_pressure;Samples;Min_cycle;Max_cycle;Signal;HPM_P1;HPM_P2
2023/01/14 00:01:39;;;;;;;0.20;0.20;;;6.90;99.90;;;;;;5080041;28;20432;-76
2023/01/14 00:04:06;;;;;;;0.20;0.20;;;6.80;99.90;;;;;;5082137;28;20455;-77
2023/01/14 00:06:35;;;;;;;1.88;0.60;;;6.80;99.90;;;;;;5071590;28;20451;-76
2023/01/14 00:09:06;;;;;;;1.75;0.55;;;6.80;99.90;;;;;;5091302;28;20890;-76
2023/01/14 00:11:51;;;;;;;0.20;0.20;;;6.80;99.90;;;;;;5100493;28;20422;-76
2023/01/14 00:14:24;;;;;;;0.38;0.38;;;6.80;99.90;;;;;;5100870;28;20422;-76
2023/01/14 00:16:52;;;;;;;0.25;0.25;;;6.70;99.90;;;;;;5088693;28;20516;-76
2023/01/14 00:19:20;;;;;;;3.83;0.82;;;6.60;99.90;;;;;;5071004;28;20419;-76
2023/01/14 00:21:50;;;;;;;1.17;0.47;;;6.50;99.90;;;;;;5070447;28;20423;-76
2023/01/14 00:24:19;;;;;;;0.50;0.40;;;6.40;99.90;;;;;;5081404;28;20998;-76
2023/01/14 00:26:50;;;;;;;0.65;0.65;;;6.20;99.90;;;;;;5077387;28;20454;-76
2023/01/14 00:29:20;;;;;;;1.13;0.38;;;6.00;99.90;;;;;;5091456;28;20431;-76
2023/01/14 00:31:47;;;;;;;1.15;1.05;;;5.80;99.90;;;;;;5090024;28;20908;-76
2023/01/14 00:34:17;;;;;;;0.30;0.30;;;5.70;99.90;;;;;;5080916;28;20427;-76
2023/01/14 00:36:45;;;;;;;0.80;0.40;;;5.60;99.90;;;;;;5080766;28;20426;-77
2023/01/14 00:39:12;;;;;;;0.30;0.30;;;5.60;99.90;;;;;;5099709;28;20494;-76
2023/01/14 00:41:40;;;;;;;2.15;0.40;;;5.50;99.90;;;;;;5085377;28;20431;-77
2023/01/14 00:44:10;;;;;;;0.60;0.60;;;5.40;99.90;;;;;;5098124;28;20485;-76
2023/01/14 00:46:41;;;;;;;3.10;0.63;;;5.30;99.90;;;;;;5085654;28;21092;-76
2023/01/14 00:49:15;;;;;;;3.35;0.55;;;5.30;99.90;;;;;;5086861;28;20885;-77
2023/01/14 00:51:42;;;;;;;3.50;0.50;;;5.20;99.90;;;;;;5088723;28;20437;-77
2023/01/14 00:54:09;;;;;;;0.70;0.50;;;5.10;99.90;;;;;;5089847;28;20986;-77
2023/01/14 00:56:39;;;;;;;0.20;0.20;;;5.00;99.90;;;;;;5101984;28;20519;-76
2023/01/14 00:59:21;;;;;;;1.20;0.40;;;4.90;99.90;;;;;;5086326;28;20431;-77
2023/01/14 01:01:51;;;;;;;0.40;0.40;;;4.80;99.90;;;;;;5099933;28;20503;-77
2023/01/14 01:04:18;;;;;;;1.63;0.70;;;4.90;99.90;;;;;;5097487;28;20435;-77
2023/01/14 01:06:45;;;;;;;1.20;0.30;;;4.90;99.90;;;;;;5091442;28;20423;-76
2023/01/14 01:09:12;;;;;;;0.20;0.20;;;4.90;99.90;;;;;;5074007;28;20967;-78
2023/01/14 01:11:39;;;;;;;0.65;0.52;;;5.00;99.90;;;;;;5095500;28;20421;-77
2023/01/14 01:14:06;;;;;;;3.80;0.60;;;5.00;99.90;;;;;;5093349;28;20947;-77
2023/01/14 01:16:32;;;;;;;0.30;0.30;;;5.10;99.90;;;;;;5092515;28;20427;-77
2023/01/14 01:18:59;;;;;;;0.40;0.40;;;5.20;99.90;;;;;;5079796;28;20490;-77
2023/01/14 01:21:26;;;;;;;0.20;0.20;;;5.20;99.90;;;;;;5077058;28;20430;-77
2023/01/14 01:23:53;;;;;;;0.43;0.43;;;5.30;99.90;;;;;;5088363;28;20803;-77
2023/01/14 01:26:23;;;;;;;1.65;0.30;;;5.20;99.90;;;;;;5096402;28;20426;-77
2023/01/14 01:28:53;;;;;;;0.20;0.20;;;5.20;99.90;;;;;;5083719;28;20426;-77
2023/01/14 01:31:21;;;;;;;0.20;0.20;;;5.00;99.90;;;;;;5093872;28;20450;-77
2023/01/14 01:33:48;;;;;;;0.82;0.82;;;4.90;99.90;;;;;;5099271;28;20536;-77
2023/01/14 01:36:21;;;;;;;0.38;0.38;;;4.90;99.90;;;;;;5077873;28;20438;-77
2023/01/14 01:38:49;;;;;;;0.90;0.37;;;4.70;99.90;;;;;;5071546;28;20457;-76
2023/01/14 01:41:22;;;;;;;3.10;0.30;;;4.70;99.90;;;;;;5105697;28;20431;-77
2023/01/14 01:44:27;;;;;;;0.30;0.30;;;4.60;99.90;;;;;;5093380;28;20467;-77
2023/01/14 01:46:55;;;;;;;0.20;0.20;;;4.50;99.90;;;;;;5093142;28;20899;-77
2023/01/14 01:49:24;;;;;;;1.33;0.47;;;4.40;99.90;;;;;;5092753;28;20453;-77
2023/01/14 01:51:51;;;;;;;0.40;0.40;;;4.40;99.90;;;;;;5071110;28;20437;-77
2023/01/14 01:54:22;;;;;;;2.20;0.50;;;4.30;99.90;;;;;;5086756;28;20426;-77
2023/01/14 01:56:49;;;;;;;0.38;0.38;;;4.30;99.90;;;;;;5095308;28;20427;-77
2023/01/14 01:59:19;;;;;;;1.20;0.50;;;4.20;99.90;;;;;;5083287;28;20430;-77
2023/01/14 02:01:51;;;;;;;1.10;0.40;;;4.10;99.90;;;;;;5088472;28;20422;-77
2023/01/14 02:04:26;;;;;;;0.43;0.43;;;4.10;99.90;;;;;;5085946;28;20430;-77
2023/01/14 02:06:52;;;;;;;0.35;0.35;;;4.10;99.90;;;;;;5092056;28;20538;-77
2023/01/14 02:09:20;;;;;;;0.38;0.38;;;4.10;99.90;;;;;;5092078;28;20421;-77
2023/01/14 02:12:09;;;;;;;0.45;0.45;;;4.10;99.90;;;;;;5096327;28;20430;-77
2023/01/14 02:14:58;;;;;;;1.90;0.45;;;4.30;99.90;;;;;;5083863;28;20505;-77
2023/01/14 02:17:55;;;;;;;7.28;0.73;;;4.30;99.90;;;;;;5085449;28;20426;-77
2023/01/14 02:20:34;;;;;;;4.28;0.77;;;4.20;99.90;;;;;;5084722;28;20506;-77
2023/01/14 02:23:15;;;;;;;1.40;0.90;;;4.10;99.90;;;;;;5076628;28;20423;-77
2023/01/14 02:25:45;;;;;;;1.40;0.27;;;4.00;99.90;;;;;;5094435;28;20652;-77
2023/01/14 02:28:37;;;;;;;1.70;0.60;;;4.00;99.90;;;;;;5091963;28;20794;-77
2023/01/14 02:31:25;;;;;;;0.40;0.20;;;3.90;99.90;;;;;;5080360;28;20875;-77
2023/01/14 02:34:01;;;;;;;0.60;0.55;;;3.90;99.90;;;;;;5085691;28;20432;-77
2023/01/14 02:36:48;;;;;;;0.35;0.35;;;3.90;99.90;;;;;;5097673;28;20515;-77
2023/01/14 02:39:21;;;;;;;0.70;0.47;;;3.90;99.90;;;;;;5083235;28;20431;-77
2023/01/14 02:45:18;;;;;;;0.20;0.20;;;4.00;1.00;;;;;;5072286;28;20431;-76
2023/01/14 02:47:47;;;;;;;0.38;0.38;;;4.00;1.00;;;;;;5072025;28;20444;-77
2023/01/14 02:50:15;;;;;;;0.20;0.20;;;4.00;1.00;;;;;;5077828;28;20444;-77
2023/01/14 02:52:42;;;;;;;2.00;0.60;;;4.00;99.90;;;;;;5082690;28;20444;-77
2023/01/14 02:55:29;;;;;;;0.20;0.20;;;4.00;99.90;;;;;;5086941;28;20781;-77
2023/01/14 02:58:29;;;;;;;0.40;0.40;;;3.80;99.90;;;;;;5092251;28;20424;-77
2023/01/14 03:01:36;;;;;;;0.13;0.13;;;3.70;1.00;;;;;;5072280;28;20472;-77
2023/01/14 03:04:31;;;;;;;0.50;0.50;;;3.70;99.90;;;;;;5052469;28;20444;-77
2023/01/14 03:07:22;;;;;;;0.47;0.47;;;3.60;99.90;;;;;;5050805;28;20422;-77
2023/01/14 03:10:10;;;;;;;2.60;0.40;;;3.50;1.00;;;;;;5038581;28;20451;-76
2023/01/14 03:12:52;;;;;;;0.28;0.28;;;3.50;99.90;;;;;;5042179;28;20431;-77
2023/01/14 03:15:33;;;;;;;0.25;0.25;;;3.40;99.90;;;;;;5053891;28;20428;-77
2023/01/14 03:18:25;;;;;;;0.30;0.30;;;3.50;1.00;;;;;;5040789;28;20429;-77
2023/01/14 03:20:59;;;;;;;0.30;0.30;;;3.40;1.00;;;;;;5060108;28;20421;-77
2023/01/14 03:23:47;;;;;;;0.30;0.30;;;3.40;99.90;;;;;;5043467;28;20436;-77
2023/01/14 03:26:15;;;;;;;0.20;0.20;;;3.50;99.90;;;;;;5040700;28;20431;-77
2023/01/14 03:28:47;;;;;;;2.25;0.80;;;3.50;1.00;;;;;;5055858;28;20444;-77
2023/01/14 03:31:37;;;;;;;0.60;0.60;;;3.50;1.00;;;;;;5037678;28;20459;-77
2023/01/14 03:34:15;;;;;;;0.40;0.40;;;3.50;1.00;;;;;;5048055;28;20437;-77
2023/01/14 03:37:05;;;;;;;0.30;0.20;;;3.50;99.90;;;;;;5044798;28;20435;-77
2023/01/14 03:39:53;;;;;;;6.40;0.60;;;3.50;99.90;;;;;;5039680;28;20521;-78
2023/01/14 03:42:24;;;;;;;0.20;0.20;;;3.70;1.00;;;;;;5074632;28;20429;-76
2023/01/14 03:44:57;;;;;;;0.30;0.30;;;3.80;1.00;;;;;;5076821;28;20431;-77
2023/01/14 03:47:27;;;;;;;0.35;0.28;;;3.90;99.90;;;;;;5090686;28;20510;-77
2023/01/14 03:49:56;;;;;;;0.20;0.20;;;3.90;1.00;;;;;;5087300;28;20424;-76
2023/01/14 03:52:47;;;;;;;0.38;0.28;;;3.90;99.90;;;;;;5097277;28;20420;-77
2023/01/14 03:55:24;;;;;;;5.10;0.80;;;3.90;99.90;;;;;;5092044;28;20503;-77
2023/01/14 03:58:08;;;;;;;0.13;0.13;;;3.90;99.90;;;;;;5097047;28;20434;-77
2023/01/14 04:00:44;;;;;;;7.35;0.95;;;4.00;99.90;;;;;;5090354;28;20461;-76
2023/01/14 04:03:12;;;;;;;1.50;0.38;;;4.10;99.90;;;;;;5076040;28;20467;-77
2023/01/14 04:05:40;;;;;;;0.80;0.50;;;4.10;1.00;;;;;;5096597;28;20426;-77
2023/01/14 04:08:08;;;;;;;1.00;0.83;;;4.00;1.00;;;;;;5086408;28;20440;-77
2023/01/14 04:10:35;;;;;;;0.40;0.40;;;4.00;1.00;;;;;;5071621;28;20835;-76
2023/01/14 04:15:47;;;;;;;0.40;0.40;;;3.90;99.90;;;;;;5079371;28;20447;-77
2023/01/14 04:18:15;;;;;;;0.50;0.45;;;3.80;1.00;;;;;;5075980;28;20468;-77
2023/01/14 04:20:42;;;;;;;0.22;0.22;;;3.80;99.90;;;;;;5092257;28;20480;-77
2023/01/14 04:23:08;;;;;;;0.32;0.32;;;4.00;1.00;;;;;;5079382;28;22778;-77
2023/01/14 04:25:35;;;;;;;1.50;0.80;;;4.00;99.90;;;;;;5081715;28;20432;-78
2023/01/14 04:28:02;;;;;;;2.25;0.63;;;3.90;99.90;;;;;;5103055;28;20424;-77
2023/01/14 04:30:28;;;;;;;0.30;0.30;;;3.90;99.90;;;;;;5079906;28;20459;-77
2023/01/14 04:32:55;;;;;;;0.40;0.40;;;3.90;99.90;;;;;;5088970;28;21150;-77
2023/01/14 04:35:22;;;;;;;0.60;0.60;;;3.80;99.90;;;;;;5069256;28;20423;-77
2023/01/14 04:37:50;;;;;;;0.25;0.25;;;3.90;1.00;;;;;;5077660;28;20426;-78
2023/01/14 04:40:17;;;;;;;0.90;0.50;;;4.00;99.90;;;;;;5085053;28;21119;-77
2023/01/14 04:42:44;;;;;;;0.57;0.52;;;4.10;99.90;;;;;;5078820;28;20438;-77
2023/01/14 04:45:11;;;;;;;0.77;0.77;;;4.20;1.00;;;;;;5095631;28;20459;-77
2023/01/14 04:47:38;;;;;;;0.70;0.55;;;4.30;99.90;;;;;;5080229;28;20448;-78
2023/01/14 04:52:51;;;;;;;4.20;0.38;;;4.40;99.90;;;;;;5072410;28;20430;-77
2023/01/14 04:55:19;;;;;;;0.30;0.30;;;4.50;98.80;;;;;;5084642;28;20487;-77
2023/01/14 04:57:45;;;;;;;2.00;0.70;;;4.60;1.00;;;;;;5080442;28;20418;-78
2023/01/14 05:00:13;;;;;;;0.60;0.60;;;4.70;99.90;;;;;;5070648;28;20439;-77
2023/01/14 05:02:39;;;;;;;0.22;0.22;;;4.80;99.90;;;;;;5076224;28;20830;-77
2023/01/14 05:05:06;;;;;;;0.22;0.22;;;4.80;45.50;;;;;;5085396;28;20427;-76
2023/01/14 05:07:33;;;;;;;1.50;0.25;;;4.80;1.00;;;;;;5093624;28;20769;-78
2023/01/14 05:10:00;;;;;;;2.17;0.35;;;4.80;1.00;;;;;;5089968;28;20496;-77
2023/01/14 05:12:29;;;;;;;0.30;0.30;;;4.70;1.00;;;;;;5088083;28;20425;-77
2023/01/14 05:14:56;;;;;;;0.25;0.22;;;4.70;1.00;;;;;;5090108;28;20427;-77
2023/01/14 05:17:23;;;;;;;0.27;0.27;;;4.60;1.00;;;;;;5073571;28;20535;-77
2023/01/14 05:20:00;;;;;;;0.20;0.20;;;4.60;1.00;;;;;;5092825;28;20451;-78
2023/01/14 05:22:27;;;;;;;4.80;0.70;;;4.70;89.90;;;;;;5091245;28;20915;-77
2023/01/14 05:24:53;;;;;;;1.10;0.50;;;4.70;1.00;;;;;;5094023;28;20841;-78
2023/01/14 05:27:20;;;;;;;1.10;0.73;;;4.70;1.80;;;;;;5094154;28;20421;-78
2023/01/14 05:29:47;;;;;;;2.80;0.40;;;4.80;1.00;;;;;;5072869;28;20512;-77
2023/01/14 05:32:14;;;;;;;0.10;0.10;;;4.90;1.00;;;;;;5087151;28;20461;-78
2023/01/14 05:34:41;;;;;;;0.40;0.40;;;4.90;1.00;;;;;;5088665;28;20517;-78
2023/01/14 05:37:08;;;;;;;1.13;1.02;;;4.90;1.00;;;;;;5072471;28;20431;-78
2023/01/14 05:39:35;;;;;;;0.65;0.60;;;4.90;1.00;;;;;;5092980;28;20509;-78
2023/01/14 05:47:32;;;;;;;0.43;0.43;;;4.90;1.00;;;;;;5086878;28;20586;-77
2023/01/14 05:49:58;;;;;;;0.20;0.20;;;4.90;1.00;;;;;;5114509;28;20442;-78
2023/01/14 05:52:25;;;;;;;0.40;0.40;;;4.90;1.00;;;;;;5090252;28;20431;-78
2023/01/14 05:54:52;;;;;;;0.40;0.40;;;4.90;1.00;;;;;;5097107;28;20466;-78
2023/01/14 05:57:18;;;;;;;0.30;0.30;;;4.80;1.00;;;;;;5102632;28;20426;-77
2023/01/14 05:59:45;;;;;;;0.70;0.70;;;4.90;1.00;;;;;;5109804;28;20424;-77
2023/01/14 06:07:56;;;;;;;0.20;0.20;;;5.00;99.90;;;;;;5082694;28;20427;-77
2023/01/14 06:10:29;;;;;;;3.50;0.70;;;5.10;99.90;;;;;;5090600;28;20516;-77
2023/01/14 06:12:58;;;;;;;0.70;0.70;;;5.00;99.90;;;;;;5079712;28;20431;-77
2023/01/14 06:15:32;;;;;;;2.30;1.00;;;5.00;99.90;;;;;;5089402;28;20484;-77
2023/01/14 06:18:13;;;;;;;1.60;0.40;;;5.00;99.90;;;;;;5074146;28;20903;-78
2023/01/14 06:20:40;;;;;;;1.10;0.73;;;4.90;99.90;;;;;;5079251;28;20420;-78
2023/01/14 06:23:07;;;;;;;15.80;0.98;;;4.90;99.90;;;;;;5084853;28;20427;-77
2023/01/14 06:25:34;;;;;;;0.90;0.70;;;4.90;99.90;;;;;;5077529;28;20422;-78
2023/01/14 06:28:01;;;;;;;1.70;0.90;;;4.90;99.90;;;;;;5095916;28;20508;-77
2023/01/14 06:30:29;;;;;;;0.20;0.20;;;4.90;99.90;;;;;;5091892;28;20520;-78
2023/01/14 06:32:57;;;;;;;0.20;0.20;;;4.90;1.00;;;;;;5086948;28;20487;-78
2023/01/14 06:35:24;;;;;;;0.38;0.38;;;4.90;99.90;;;;;;5089578;28;20427;-74
2023/01/14 06:37:51;;;;;;;2.20;0.43;;;4.80;1.00;;;;;;5073824;28;20439;-73
2023/01/14 06:40:19;;;;;;;0.20;0.20;;;4.80;1.00;;;;;;5088793;28;20499;-74
2023/01/14 06:42:46;;;;;;;0.43;0.38;;;4.70;1.00;;;;;;5091067;28;20980;-74
2023/01/14 06:45:16;;;;;;;0.20;0.20;;;4.60;1.00;;;;;;5072343;28;20423;-74
2023/01/14 06:47:42;;;;;;;1.40;0.35;;;4.50;99.90;;;;;;5071242;28;20467;-73
2023/01/14 06:50:10;;;;;;;0.50;0.50;;;4.50;99.90;;;;;;5078699;28;20839;-74
2023/01/14 06:52:37;;;;;;;0.30;0.30;;;4.50;1.00;;;;;;5076416;28;20985;-73
2023/01/14 06:55:04;;;;;;;0.60;0.57;;;4.40;1.00;;;;;;5092220;28;20420;-73
2023/01/14 06:57:31;;;;;;;1.20;0.30;;;4.40;31.90;;;;;;5089259;28;20529;-73
2023/01/14 06:59:57;;;;;;;0.50;0.50;;;4.40;99.90;;;;;;5080527;28;20441;-73
2023/01/14 07:02:24;;;;;;;0.25;0.25;;;4.40;99.90;;;;;;5077473;28;20551;-73
2023/01/14 07:04:51;;;;;;;0.10;0.10;;;4.40;99.90;;;;;;5086438;28;20593;-73
2023/01/14 07:07:18;;;;;;;0.80;0.35;;;4.40;1.00;;;;;;5079766;28;20423;-73
2023/01/14 07:09:45;;;;;;;0.90;0.20;;;4.40;1.00;;;;;;5089997;28;20427;-74
2023/01/14 07:12:12;;;;;;;5.50;0.43;;;4.50;1.00;;;;;;5093836;28;20423;-73
2023/01/14 07:14:39;;;;;;;1.80;0.40;;;4.50;1.00;;;;;;5079335;28;20450;-74
2023/01/14 07:17:08;;;;;;;2.10;0.65;;;4.60;1.00;;;;;;5084551;28;20484;-73
2023/01/14 07:19:34;;;;;;;2.38;0.75;;;4.60;1.00;;;;;;5093589;28;20865;-74
2023/01/14 07:22:01;;;;;;;1.63;0.45;;;4.70;1.00;;;;;;5080462;28;20422;-73
2023/01/14 07:24:28;;;;;;;2.45;0.35;;;4.70;99.90;;;;;;5094610;28;20902;-73
2023/01/14 07:26:56;;;;;;;0.50;0.30;;;4.80;99.90;;;;;;5083609;28;20432;-74
2023/01/14 07:29:26;;;;;;;0.70;0.30;;;4.90;99.90;;;;;;5068752;28;20498;-73
2023/01/14 07:31:53;;;;;;;3.20;0.50;;;5.00;1.00;;;;;;5071837;28;20897;-73
2023/01/14 07:34:21;;;;;;;0.43;0.35;;;5.00;1.00;;;;;;5073634;28;20892;-73
2023/01/14 07:36:48;;;;;;;3.80;0.80;;;5.10;99.90;;;;;;5081570;28;20438;-73
2023/01/14 07:39:14;;;;;;;0.65;0.32;;;5.10;99.90;;;;;;5094732;28;20424;-74
2023/01/14 07:41:41;;;;;;;0.20;0.20;;;5.20;99.90;;;;;;5089724;27;20900;-74
2023/01/14 07:44:08;;;;;;;0.30;0.30;;;5.20;80.00;;;;;;5082774;28;20432;-74
2023/01/14 07:46:34;;;;;;;0.20;0.20;;;5.20;1.00;;;;;;5089357;28;20423;-73
2023/01/14 07:49:01;;;;;;;0.30;0.30;;;5.30;1.00;;;;;;5083831;28;20492;-73
2023/01/14 07:51:28;;;;;;;1.90;0.57;;;5.30;1.00;;;;;;5095797;28;20922;-74
2023/01/14 07:53:55;;;;;;;6.90;0.30;;;5.40;99.90;;;;;;5097588;28;20424;-74
2023/01/14 07:56:21;;;;;;;0.40;0.40;;;5.40;99.90;;;;;;5089540;28;20428;-74
2023/01/14 07:58:48;;;;;;;0.32;0.32;;;5.40;99.90;;;;;;5089355;28;20427;-74
2023/01/14 08:01:15;;;;;;;0.22;0.22;;;5.40;99.90;;;;;;5094498;28;20479;-73
2023/01/14 08:03:42;;;;;;;0.63;0.63;;;5.40;99.90;;;;;;5084640;28;20462;-73
2023/01/14 08:06:09;;;;;;;1.10;0.40;;;5.30;99.90;;;;;;5095498;28;20760;-73
2023/01/14 08:08:35;;;;;;;2.13;0.37;;;5.40;99.90;;;;;;5087495;28;20450;-74
2023/01/14 08:11:03;;;;;;;0.40;0.25;;;5.40;99.90;;;;;;5097343;28;20428;-74
2023/01/14 08:13:31;;;;;;;6.50;0.70;;;5.40;99.90;;;;;;5074520;28;20437;-74
2023/01/14 08:16:00;;;;;;;3.65;0.95;;;5.40;99.90;;;;;;5091373;28;20423;-75
2023/01/14 08:18:29;;;;;;;0.30;0.30;;;5.40;99.90;;;;;;5082072;28;20425;-75
2023/01/14 08:21:00;;;;;;;0.25;0.25;;;5.40;99.90;;;;;;5098534;28;20846;-75
2023/01/14 08:23:27;;;;;;;0.30;0.30;;;5.40;99.90;;;;;;5089458;28;20434;-75
2023/01/14 08:25:53;;;;;;;1.20;0.30;;;5.40;99.90;;;;;;5088102;28;20436;-75
2023/01/14 08:28:20;;;;;;;0.10;0.10;;;5.40;99.90;;;;;;5074903;28;20428;-72
2023/01/14 08:30:47;;;;;;;3.80;0.40;;;5.50;99.90;;;;;;5075286;28;20435;-76
2023/01/14 08:33:14;;;;;;;2.80;0.37;;;5.50;99.90;;;;;;5076583;28;21012;-75
2023/01/14 08:35:41;;;;;;;0.35;0.35;;;5.50;99.90;;;;;;5081720;28;20465;-75
2023/01/14 08:38:07;;;;;;;0.30;0.30;;;5.60;99.90;;;;;;5094309;28;20437;-75
2023/01/14 08:40:34;;;;;;;1.30;0.50;;;5.60;92.30;;;;;;5094001;28;20833;-75
2023/01/14 08:43:03;;;;;;;0.60;0.20;;;5.70;95.50;;;;;;5077206;28;20511;-75
2023/01/14 08:45:33;;;;;;;0.40;0.40;;;5.70;99.90;;;;;;5091178;28;20502;-74
2023/01/14 08:48:04;;;;;;;0.32;0.32;;;5.70;99.90;;;;;;5090611;28;21023;-75
2023/01/14 08:50:30;;;;;;;0.20;0.20;;;5.60;99.90;;;;;;5092292;28;20425;-75
2023/01/14 08:52:57;;;;;;;3.90;0.70;;;5.60;99.90;;;;;;5088709;28;20489;-76
2023/01/14 08:55:24;;;;;;;0.30;0.25;;;5.60;99.90;;;;;;5095862;28;20516;-75
2023/01/14 08:57:52;;;;;;;0.73;0.25;;;5.60;1.00;;;;;;5092424;28;20430;-75
2023/01/14 09:00:20;;;;;;;0.70;0.20;;;5.70;1.00;;;;;;5082045;27;20436;-74
2023/01/14 09:02:46;;;;;;;1.73;0.70;;;5.70;1.00;;;;;;5100107;28;20426;-76
2023/01/14 09:05:13;;;;;;;2.30;0.30;;;5.70;1.00;;;;;;5089909;28;20495;-73
2023/01/14 09:18:45;;;;;;;6.20;0.30;;;6.00;1.00;;;;;;5085094;27;20429;-74
2023/01/14 09:21:12;;;;;;;0.22;0.22;;;6.10;1.00;;;;;;5117073;27;20498;-74
2023/01/14 09:23:39;;;;;;;6.80;0.30;;;6.10;1.00;;;;;;5088997;27;20429;-74
2023/01/14 09:26:06;;;;;;;0.25;0.25;;;6.20;1.00;;;;;;5091383;27;20557;-74
2023/01/14 09:28:33;;;;;;;0.13;0.13;;;6.20;1.00;;;;;;5092376;27;20429;-72
2023/01/14 09:30:59;;;;;;;0.13;0.10;;;6.30;1.00;;;;;;5087092;28;20428;-74
2023/01/14 09:33:26;;;;;;;0.50;0.50;;;6.40;1.00;;;;;;5076740;28;20431;-73
2023/01/14 09:35:53;;;;;;;1.80;0.40;;;6.50;99.90;;;;;;5077021;28;20493;-75
2023/01/14 09:38:19;;;;;;;0.30;0.30;;;6.50;99.90;;;;;;5081544;28;20431;-74
2023/01/14 09:40:46;;;;;;;2.10;0.70;;;6.60;99.90;;;;;;5087091;28;20427;-74
2023/01/14 09:43:16;;;;;;;0.20;0.20;;;6.60;99.90;;;;;;5084004;28;20418;-72
2023/01/14 09:45:44;;;;;;;0.10;0.10;;;6.60;1.00;;;;;;5078744;28;20431;-73
2023/01/14 09:48:19;;;;;;;1.00;0.50;;;6.60;1.00;;;;;;5081459;28;20489;-72
2023/01/14 09:51:15;;;;;;;0.17;0.17;;;6.60;1.00;;;;;;5091622;28;20446;-72
2023/01/14 09:54:06;;;;;;;0.20;0.20;;;6.60;1.00;;;;;;5093392;28;20439;-72
2023/01/14 09:56:43;;;;;;;0.00;0.00;;;6.70;65.20;;;;;;5083216;28;21025;-74
2023/01/14 09:59:31;;;;;;;0.10;0.10;;;6.60;99.90;;;;;;5093868;28;20460;-73
2023/01/14 10:02:08;;;;;;;0.20;0.20;;;6.60;1.00;;;;;;5085293;28;20431;-75
2023/01/14 10:05:02;;;;;;;4.20;0.40;;;6.60;1.00;;;;;;5089157;28;20428;-73
2023/01/14 10:07:30;;;;;;;0.20;0.10;;;6.60;99.90;;;;;;5075143;28;20431;-74
2023/01/14 10:09:58;;;;;;;0.08;0.08;;;6.60;94.00;;;;;;5080161;28;20449;-74
2023/01/14 10:12:41;;;;;;;0.40;0.30;;;6.60;99.90;;;;;;5083541;28;20972;-74
2023/01/14 10:15:17;;;;;;;0.50;0.30;;;6.70;99.90;;;;;;5079416;28;20474;-74
2023/01/14 10:18:16;;;;;;;0.20;0.20;;;6.70;18.60;;;;;;5078400;28;20965;-78
2023/01/14 10:20:55;;;;;;;0.10;0.10;;;6.80;1.00;;;;;;5041097;28;20426;-76
2023/01/14 10:23:36;;;;;;;0.20;0.20;;;6.90;1.00;;;;;;5046817;28;20449;-77
2023/01/14 10:26:11;;;;;;;0.10;0.10;;;6.90;99.90;;;;;;5047684;28;20437;-74
2023/01/14 10:28:39;;;;;;;0.10;0.10;;;7.00;99.90;;;;;;5047087;28;20453;-74
2023/01/14 10:31:06;;;;;;;0.28;0.28;;;7.10;1.00;;;;;;5044938;28;20487;-74
2023/01/14 10:33:33;;;;;;;0.20;0.20;;;7.10;1.00;;;;;;5028945;28;20425;-74
2023/01/14 10:36:13;;;;;;;0.95;0.15;;;7.10;1.00;;;;;;5048202;28;20423;-73
2023/01/14 10:38:42;;;;;;;0.20;0.20;;;7.20;1.00;;;;;;5049068;28;20432;-74
2023/01/14 10:41:11;;;;;;;0.20;0.20;;;7.30;99.90;;;;;;5045099;28;20429;-74
2023/01/14 10:43:52;;;;;;;0.45;0.28;;;7.30;99.90;;;;;;5045422;28;20420;-74
2023/01/14 10:46:21;;;;;;;0.28;0.28;;;7.30;99.90;;;;;;5033742;28;20435;-75
2023/01/14 10:49:01;;;;;;;0.10;0.10;;;7.30;99.90;;;;;;5054941;28;20443;-74
2023/01/14 10:51:36;;;;;;;0.40;0.40;;;7.30;99.90;;;;;;5043660;28;20471;-75
2023/01/14 10:54:11;;;;;;;0.20;0.20;;;7.40;98.70;;;;;;5029242;28;20432;-75
2023/01/14 10:56:47;;;;;;;0.30;0.30;;;7.40;88.10;;;;;;5039784;28;20434;-75
2023/01/14 10:59:22;;;;;;;0.77;0.77;;;7.50;1.00;;;;;;5081192;28;20459;-75
2023/01/14 11:01:49;;;;;;;0.50;0.50;;;7.50;1.00;;;;;;5078676;28;20430;-75
2023/01/14 11:04:16;;;;;;;0.30;0.30;;;7.50;1.00;;;;;;5079164;28;20434;-75
2023/01/14 11:06:43;;;;;;;0.30;0.30;;;7.50;1.00;;;;;;5079407;28;20827;-75
2023/01/14 11:09:27;;;;;;;0.40;0.40;;;7.50;1.00;;;;;;5074565;28;20436;-75
2023/01/14 11:11:56;;;;;;;3.60;0.40;;;7.50;1.00;;;;;;5073827;28;20430;-75
2023/01/14 11:14:28;;;;;;;3.65;0.55;;;7.50;1.00;;;;;;5067928;28;20429;-75
2023/01/14 11:16:55;;;;;;;0.20;0.20;;;7.50;1.00;;;;;;5077337;28;20438;-75
2023/01/14 11:19:24;;;;;;;1.48;0.77;;;7.50;1.00;;;;;;5077614;28;20450;-75
2023/01/14 11:21:58;;;;;;;2.20;0.28;;;7.50;1.00;;;;;;5095870;28;20964;-75
2023/01/14 11:24:40;;;;;;;0.30;0.30;;;7.40;1.00;;;;;;5086665;28;20459;-75
2023/01/14 11:27:19;;;;;;;1.57;0.43;;;7.40;1.00;;;;;;5084746;28;20499;-75
2023/01/14 11:29:55;;;;;;;0.20;0.20;;;7.40;1.00;;;;;;5092361;28;20428;-75
2023/01/14 11:32:25;;;;;;;3.60;0.40;;;7.40;1.00;;;;;;5085808;28;20488;-74
2023/01/14 11:35:01;;;;;;;0.20;0.20;;;7.40;1.00;;;;;;5084207;28;20459;-75
2023/01/14 11:37:45;;;;;;;0.40;0.40;;;7.50;1.00;;;;;;5073309;28;20427;-75
2023/01/14 11:43:24;;;;;;;0.35;0.32;;;7.50;99.90;;;;;;5083348;28;20422;-75
2023/01/14 11:46:12;;;;;;;0.57;0.20;;;7.60;99.90;;;;;;5079648;28;21007;-75
2023/01/14 11:48:40;;;;;;;1.90;0.30;;;7.60;99.90;;;;;;5075868;28;20539;-75
2023/01/14 11:51:19;;;;;;;0.20;0.20;;;7.60;99.90;;;;;;5072817;28;20875;-75
2023/01/14 11:53:47;;;;;;;0.30;0.30;;;7.60;99.90;;;;;;5078724;28;20457;-75
2023/01/14 11:56:26;;;;;;;0.20;0.20;;;7.70;99.90;;;;;;5086269;28;20901;-75
2023/01/14 11:58:53;;;;;;;0.20;0.20;;;7.70;99.90;;;;;;5074574;28;20834;-75
2023/01/14 12:01:36;;;;;;;0.50;0.37;;;7.70;99.90;;;;;;5088337;28;20995;-75
2023/01/14 12:04:18;;;;;;;0.50;0.50;;;7.80;99.90;;;;;;5083701;28;20514;-75
2023/01/14 12:06:50;;;;;;;0.65;0.20;;;7.80;99.90;;;;;;5085550;28;20449;-75
2023/01/14 12:09:22;;;;;;;0.20;0.20;;;7.80;99.90;;;;;;5077510;28;20427;-75
2023/01/14 12:12:04;;;;;;;1.25;0.43;;;7.80;99.90;;;;;;5079755;28;20502;-75
2023/01/14 12:17:41;;;;;;;0.30;0.30;;;7.80;99.90;;;;;;5081334;28;20514;-74
2023/01/14 12:20:12;;;;;;;0.40;0.40;;;7.80;99.90;;;;;;5084005;28;20427;-76
2023/01/14 12:22:39;;;;;;;0.55;0.45;;;7.80;99.90;;;;;;5088235;28;20515;-75
2023/01/14 12:25:37;;;;;;;0.10;0.10;;;7.70;99.90;;;;;;5080167;28;20430;-75
2023/01/14 12:28:29;;;;;;;0.40;0.40;;;7.70;99.90;;;;;;5075637;28;20424;-75
2023/01/14 12:31:30;;;;;;;0.20;0.20;;;7.60;99.90;;;;;;5069426;28;20459;-75
2023/01/14 12:34:04;;;;;;;0.10;0.10;;;7.70;99.90;;;;;;5086107;28;20912;-75
2023/01/14 12:36:43;;;;;;;1.48;0.40;;;7.70;99.90;;;;;;5073304;28;20439;-75
2023/01/14 12:45:46;;;;;;;0.10;0.10;;;7.70;99.90;;;;;;5077473;28;20427;-75
2023/01/14 12:48:18;;;;;;;0.40;0.40;;;7.70;99.90;;;;;;5080673;28;20437;-73
2023/01/14 12:50:57;;;;;;;0.13;0.13;;;7.70;99.90;;;;;;5078733;28;20426;-73
2023/01/14 12:53:28;;;;;;;0.30;0.30;;;7.60;99.90;;;;;;5066294;28;20432;-73
2023/01/14 12:55:59;;;;;;;1.80;0.15;;;7.60;99.90;;;;;;5070314;28;20419;-73
2023/01/14 12:58:29;;;;;;;0.20;0.20;;;7.60;99.90;;;;;;5076005;28;20431;-73
2023/01/14 13:01:01;;;;;;;0.50;0.50;;;7.60;99.90;;;;;;5077555;28;20439;-73
2023/01/14 13:03:39;;;;;;;0.15;0.15;;;7.70;99.90;;;;;;5072822;28;20552;-73
2023/01/14 13:06:15;;;;;;;0.20;0.20;;;7.70;99.90;;;;;;5080147;28;20939;-73
2023/01/14 13:08:42;;;;;;;1.05;0.75;;;7.70;99.90;;;;;;5086673;28;20427;-74
2023/01/14 13:11:24;;;;;;;0.30;0.30;;;7.70;99.90;;;;;;5077734;28;20439;-73
2023/01/14 13:13:56;;;;;;;3.08;0.38;;;7.60;1.00;;;;;;5091327;28;20454;-74
2023/01/14 13:16:41;;;;;;;0.10;0.10;;;7.60;1.00;;;;;;5077887;28;20440;-75
2023/01/14 13:19:57;;;;;;;0.10;0.10;;;7.50;1.00;;;;;;5084326;28;20531;-75
2023/01/14 13:22:45;;;;;;;0.35;0.30;;;7.50;1.00;;;;;;5076750;28;20432;-74
2023/01/14 13:25:18;;;;;;;0.30;0.30;;;7.50;1.00;;;;;;5075059;28;20433;-74
2023/01/14 13:27:46;;;;;;;0.20;0.20;;;7.60;1.00;;;;;;5080743;28;20526;-74
2023/01/14 13:30:18;;;;;;;2.80;0.30;;;7.60;1.00;;;;;;5067380;28;20502;-74
2023/01/14 13:33:00;;;;;;;0.20;0.20;;;7.60;1.00;;;;;;5082951;28;20946;-75
2023/01/14 13:35:29;;;;;;;0.20;0.20;;;7.60;1.00;;;;;;5087250;28;20513;-74
2023/01/14 13:38:27;;;;;;;0.68;0.28;;;7.50;1.00;;;;;;5083921;28;20427;-74
2023/01/14 13:41:08;;;;;;;0.10;0.10;;;7.50;1.00;;;;;;5079828;28;21146;-75
2023/01/14 13:43:51;;;;;;;0.20;0.20;;;7.60;1.00;;;;;;5098377;28;20420;-74
2023/01/14 13:46:22;;;;;;;0.10;0.10;;;7.60;1.00;;;;;;5074150;28;20441;-74
2023/01/14 13:48:53;;;;;;;1.00;0.30;;;7.60;1.00;;;;;;5086442;28;20457;-74
2023/01/14 13:51:38;;;;;;;0.20;0.20;;;7.60;1.00;;;;;;5083885;28;20497;-73
2023/01/14 13:54:23;;;;;;;0.30;0.30;;;7.70;1.00;;;;;;5068527;28;20431;-74
2023/01/14 13:57:06;;;;;;;0.20;0.20;;;7.70;1.00;;;;;;5075184;28;20976;-74
2023/01/14 13:59:35;;;;;;;0.20;0.20;;;7.70;1.00;;;;;;5081020;28;20521;-75
2023/01/14 14:02:02;;;;;;;0.10;0.10;;;7.70;1.00;;;;;;5086213;28;20735;-74
2023/01/14 14:04:57;;;;;;;0.10;0.10;;;7.70;1.00;;;;;;5084003;28;20437;-74
2023/01/14 14:07:43;;;;;;;1.10;0.20;;;7.60;1.00;;;;;;5085601;28;20433;-74
2023/01/14 14:10:30;;;;;;;0.10;0.10;;;7.60;1.00;;;;;;5068287;28;20543;-73
2023/01/14 14:15:57;;;;;;;0.28;0.28;;;7.70;1.00;;;;;;5083237;28;20515;-74